createdAt,value
2019-03-09T00:04:22.891Z,6.82
2019-03-09T00:09:31.683Z,4.33
2019-03-09T00:14:40.233Z,5.65
2019-03-09T00:19:49.018Z,6.10
2019-03-09T00:24:57.432Z,6.82
2019-03-09T00:30:06.309Z,4.49
2019-03-09T00:35:14.715Z,4.14
2019-03-09T00:40:23.547Z,6.26
2019-03-09T00:45:31.972Z,4.54
2019-03-09T00:50:41.084Z,6.37
2019-03-09T00:55:49.529Z,4.07
2019-03-09T01:00:58.410Z,5.79
2019-03-09T01:06:06.888Z,3.65
2019-03-09T01:11:17.750Z,5.37
2019-03-09T01:16:16.183Z,6.64
2019-03-09T01:21:24.658Z,5.51
2019-03-09T01:26:34.639Z,6.78
2019-03-09T01:31:43.185Z,5.87
2019-03-09T01:36:52.205Z,6.53
2019-03-09T01:42:00.636Z,5.98
2019-03-09T01:47:10.009Z,4.57
2019-03-09T01:52:18.539Z,6.20
2019-03-09T01:57:27.264Z,4.39
2019-03-09T02:02:35.742Z,4.64
2019-03-09T02:07:44.731Z,4.87
2019-03-09T02:12:53.164Z,6.18
2019-03-09T02:18:02.071Z,7.33
2019-03-09T02:23:10.666Z,5.17
2019-03-09T02:28:20.595Z,4.97
2019-03-09T02:33:29.127Z,3.45
2019-03-09T02:38:38.052Z,5.29
2019-03-09T02:43:46.527Z,4.37
2019-03-09T02:48:55.357Z,5.34
2019-03-09T02:54:03.938Z,4.60
2019-03-09T02:59:12.870Z,5.05
2019-03-09T03:04:21.456Z,5.22
2019-03-09T03:09:30.284Z,5.14
2019-03-09T03:14:38.800Z,4.96
2019-03-09T03:19:47.737Z,4.82
2019-03-09T03:24:56.174Z,6.67
2019-03-09T03:30:04.961Z,6.12
2019-03-09T03:35:13.930Z,6.64
2019-03-09T03:40:22.769Z,5.27
2019-03-09T03:45:31.688Z,6.63
2019-03-09T03:50:40.518Z,6.58
2019-03-09T03:55:48.992Z,6.09
2019-03-09T04:00:58.793Z,5.79
2019-03-09T04:06:07.256Z,5.07
2019-03-09T04:11:16.058Z,5.75
2019-03-09T04:16:25.318Z,4.58
2019-03-09T04:21:34.166Z,4.80
2019-03-09T04:26:43.131Z,3.93
2019-03-09T04:31:52.044Z,5.30
2019-03-09T04:37:00.564Z,2.48
2019-03-09T04:42:09.505Z,2.38
2019-03-09T04:47:17.895Z,3.39
2019-03-09T04:52:27.377Z,2.48
2019-03-09T04:57:36.259Z,2.17
2019-03-09T05:02:46.283Z,3.09
2019-03-09T05:07:44.676Z,2.50
2019-03-09T05:12:53.377Z,2.20
2019-03-09T05:18:02.257Z,3.84
2019-03-09T05:23:10.775Z,2.80
2019-03-09T05:28:20.467Z,2.71
2019-03-09T05:33:28.982Z,2.28
2019-03-09T05:38:37.745Z,1.90
2019-03-09T05:43:46.192Z,1.39
2019-03-09T05:48:55.015Z,1.73
2019-03-09T05:54:03.583Z,1.50
2019-03-09T05:59:12.346Z,2.09
2019-03-09T06:04:21.294Z,1.03
2019-03-09T06:09:32.651Z,1.77
2019-03-09T06:14:31.043Z,1.65
2019-03-09T06:19:39.397Z,1.76
2019-03-09T06:24:47.916Z,1.65
2019-03-09T06:29:56.283Z,1.49
2019-03-09T06:35:05.143Z,1.00
2019-03-09T06:40:14.134Z,1.18
2019-03-09T06:45:24.176Z,0.74
2019-03-09T06:50:22.720Z,1.29
2019-03-09T06:55:31.722Z,0.80
2019-03-09T07:00:41.113Z,0.96
2019-03-09T07:05:49.580Z,2.05
2019-03-09T07:10:59.491Z,0.79
2019-03-09T07:16:09.008Z,1.36
2019-03-09T07:21:18.063Z,0.63
2019-03-09T07:26:26.542Z,1.03
2019-03-09T07:31:35.695Z,0.73
2019-03-09T07:36:44.258Z,0.84
2019-03-09T07:41:53.055Z,0.67
2019-03-09T07:47:02.096Z,0.96
2019-03-09T07:52:17.203Z,0.63
2019-03-09T07:57:15.190Z,0.92
2019-03-09T08:02:23.616Z,0.77
2019-03-09T08:07:33.327Z,1.84
2019-03-09T08:12:42.475Z,0.75
2019-03-09T08:17:52.087Z,0.70
2019-03-09T08:23:01.055Z,1.58
2019-03-09T08:28:11.171Z,0.67
2019-03-09T08:33:10.093Z,0.80
2019-03-09T08:38:19.074Z,0.67
2019-03-09T08:43:29.364Z,0.98
2019-03-09T08:48:28.253Z,1.26
2019-03-09T08:53:37.551Z,1.29
2019-03-09T08:58:46.892Z,1.75
2019-03-09T09:03:55.385Z,1.22
2019-03-09T09:09:05.611Z,1.30
2019-03-09T09:14:04.155Z,0.98
2019-03-09T09:19:13.179Z,1.56
2019-03-09T09:24:22.714Z,1.35
2019-03-09T09:29:31.861Z,1.31
2019-03-09T09:34:40.731Z,1.46
2019-03-09T09:39:49.835Z,1.34
2019-03-09T09:44:59.305Z,1.10
2019-03-09T09:50:08.312Z,0.92
2019-03-09T09:55:17.642Z,1.04
2019-03-09T10:00:26.584Z,1.19
2019-03-09T10:05:36.234Z,1.00
2019-03-09T10:10:45.328Z,1.37
2019-03-09T10:15:54.780Z,1.11
2019-03-09T10:21:03.281Z,1.35
2019-03-09T10:26:12.727Z,1.64
2019-03-09T10:31:21.916Z,0.87
2019-03-09T10:36:31.274Z,2.19
2019-03-09T10:41:40.285Z,1.52
2019-03-09T10:46:49.622Z,1.82
2019-03-09T10:51:58.075Z,1.77
2019-03-09T10:57:31.758Z,1.81
2019-03-09T11:02:30.931Z,1.77
2019-03-09T11:07:39.837Z,1.60
2019-03-09T11:12:49.190Z,1.18
2019-03-09T11:17:58.275Z,1.33
2019-03-09T11:23:07.650Z,1.30
2019-03-09T11:28:15.298Z,1.34
2019-03-09T11:33:25.571Z,1.90
2019-03-09T11:38:24.684Z,2.62
2019-03-09T11:43:33.713Z,2.30
2019-03-09T11:48:43.038Z,2.47
2019-03-09T11:53:51.559Z,2.93
2019-03-09T11:59:01.114Z,2.48
2019-03-09T12:04:10.133Z,2.19
2019-03-09T12:09:19.417Z,2.58
2019-03-09T12:14:28.507Z,2.19
2019-03-09T12:19:37.019Z,2.47
2019-03-09T12:24:46.157Z,2.35
2019-03-09T12:29:56.464Z,2.50
2019-03-09T12:34:55.507Z,2.41
2019-03-09T12:40:04.548Z,3.31
2019-03-09T12:45:13.970Z,1.54
2019-03-09T12:50:23.441Z,1.52
2019-03-09T12:55:32.172Z,1.95
2019-03-09T13:00:41.171Z,1.65
2019-03-09T13:05:50.553Z,1.72
2019-03-09T13:10:59.059Z,1.80
2019-03-09T13:16:08.541Z,2.27
2019-03-09T13:21:17.474Z,2.15
2019-03-09T13:26:26.845Z,2.24
2019-03-09T13:31:35.719Z,2.02
2019-03-09T13:36:45.187Z,2.08
2019-03-09T13:41:54.095Z,1.95
2019-03-09T13:47:04.391Z,2.77
2019-03-09T13:52:20.193Z,2.60
2019-03-09T13:57:19.060Z,2.16
2019-03-09T14:02:27.980Z,2.05
2019-03-09T14:07:37.225Z,1.92
2019-03-09T14:12:46.106Z,1.50
2019-03-09T14:17:56.341Z,1.13
2019-03-09T14:22:55.185Z,1.73
2019-03-09T14:28:04.669Z,0.97
2019-03-09T14:33:13.506Z,1.11
2019-03-09T14:38:22.889Z,0.92
2019-03-09T14:43:31.791Z,0.75
2019-03-09T14:48:41.285Z,0.97
2019-03-09T14:53:50.175Z,0.98
2019-03-09T14:58:59.148Z,0.98
2019-03-09T15:04:08.161Z,1.04
2019-03-09T15:09:18.678Z,0.94
2019-03-09T15:14:17.684Z,2.18
2019-03-09T15:19:26.639Z,1.30
2019-03-09T15:24:37.525Z,1.85
2019-03-09T15:29:36.552Z,1.31
2019-03-09T15:34:46.004Z,0.99
2019-03-09T15:39:55.142Z,0.77
2019-03-09T15:45:04.810Z,0.75
2019-03-09T15:50:13.832Z,0.85
2019-03-09T15:55:22.790Z,0.96
2019-03-09T16:00:31.859Z,1.32
2019-03-09T16:05:46.109Z,1.63
2019-03-09T16:10:45.100Z,3.02
2019-03-09T16:15:54.061Z,2.95
2019-03-09T16:21:04.487Z,5.09
2019-03-09T16:26:02.923Z,4.42
2019-03-09T16:31:11.945Z,4.33
2019-03-09T16:36:21.121Z,3.66
2019-03-09T16:41:30.092Z,5.40
2019-03-09T16:46:39.391Z,5.71
2019-03-09T16:51:48.364Z,4.53
2019-03-09T16:56:57.846Z,5.48
2019-03-09T17:02:06.816Z,5.75
2019-03-09T17:07:15.753Z,6.53
2019-03-09T17:12:25.292Z,6.84
2019-03-09T17:17:33.659Z,7.28
2019-03-09T17:22:43.027Z,8.74
2019-03-09T17:27:51.945Z,5.11
2019-03-09T17:33:01.393Z,7.91
2019-03-09T17:38:10.339Z,6.75
2019-03-09T17:43:19.683Z,7.96
2019-03-09T17:48:28.588Z,6.98
2019-03-09T17:53:37.485Z,7.79
2019-03-09T17:58:46.025Z,7.86
2019-03-09T18:03:55.441Z,8.77
2019-03-09T18:09:04.369Z,6.89
2019-03-09T18:14:31.278Z,7.45
2019-03-09T18:19:40.693Z,10.17
2019-03-09T18:24:50.173Z,8.29
2019-03-09T18:29:59.531Z,7.38
2019-03-09T18:35:10.856Z,8.14
2019-03-09T18:40:10.006Z,7.75
2019-03-09T18:45:19.516Z,8.59
2019-03-09T18:50:28.931Z,7.98
2019-03-09T18:55:36.489Z,6.82
2019-03-09T19:00:45.427Z,9.36
2019-03-09T19:05:54.440Z,8.20
2019-03-09T19:11:03.514Z,7.13
2019-03-09T19:16:12.059Z,9.36
2019-03-09T19:21:20.999Z,6.93
2019-03-09T19:26:50.080Z,7.34
2019-03-09T19:31:38.561Z,10.18
2019-03-09T19:36:47.511Z,9.36
2019-03-09T19:41:56.560Z,8.43
2019-03-09T19:47:05.361Z,8.97
2019-03-09T19:52:14.625Z,8.61
2019-03-09T19:57:23.960Z,10.47
2019-03-09T20:02:33.307Z,8.86
2019-03-09T20:07:42.406Z,9.20
2019-03-09T20:12:52.512Z,7.46
2019-03-09T20:17:50.995Z,10.95
2019-03-09T20:22:59.448Z,9.16
2019-03-09T20:28:08.452Z,8.24
2019-03-09T20:33:17.325Z,9.50
2019-03-09T20:38:26.261Z,10.08
2019-03-09T20:43:37.211Z,9.08
2019-03-09T20:48:35.629Z,8.99
2019-03-09T20:53:44.592Z,8.10
2019-03-09T20:58:54.126Z,13.20
2019-03-09T21:04:03.153Z,10.70
2019-03-09T21:09:12.506Z,8.40
2019-03-09T21:14:21.631Z,9.89
2019-03-09T21:19:33.742Z,9.87
2019-03-09T21:24:32.170Z,8.17
2019-03-09T21:29:41.214Z,10.86
2019-03-09T21:34:50.450Z,10.46
2019-03-09T21:39:58.886Z,10.15
2019-03-09T21:45:07.660Z,9.89
2019-03-09T21:50:16.063Z,10.89
2019-03-09T21:55:24.985Z,10.18
2019-03-09T22:00:33.871Z,12.84
2019-03-09T22:05:42.703Z,10.24
2019-03-09T22:10:51.127Z,15.13
2019-03-09T22:16:00.380Z,11.31
2019-03-09T22:21:08.852Z,11.04
2019-03-09T22:26:19.285Z,11.30
2019-03-09T22:31:17.693Z,10.90
2019-03-09T22:36:26.138Z,13.04
2019-03-09T22:41:35.477Z,13.00
2019-03-09T22:46:43.865Z,13.74
2019-03-09T22:51:52.696Z,12.38
2019-03-09T22:57:01.300Z,12.70
2019-03-09T23:02:11.195Z,14.01
2019-03-09T23:07:19.790Z,11.09
2019-03-09T23:12:28.770Z,10.57
2019-03-09T23:17:37.246Z,9.93
2019-03-09T23:22:46.084Z,12.27
2019-03-09T23:27:54.733Z,13.62
2019-03-09T23:33:03.568Z,11.75
2019-03-09T23:38:12.103Z,13.46
2019-03-09T23:43:21.049Z,12.89
2019-03-09T23:48:29.744Z,13.82
2019-03-09T23:53:38.411Z,14.43
2019-03-09T23:58:47.344Z,12.79
